Buckskin, Indiana
Current Conditions -  °F | °C
As of 9:54 AM on Sunday 23 Nov 2014 (Local Time) from KEVV Reporting Station
Light Rain Light Rain  
Wind Chill: 52°   Ceiling: 2200
Heat Index: 52°   Visibility: 6mi
Dew Point: 46°   Wind: 7mph
Humidity: 80%   Direction: 130°SE
Pressure: 29.79"   Gusts: NA
Location:  38.23°N, 87.41°W
Report Text: KEVV 231554Z 13006KT 6SM -RA OVC022 11/08 A2979 RMK AO2 RAB17E26B48 SLP087 P0000 T01110078
Loading
Personal Weather Stations






























Interactive Weather Map New forecast layout! Learn more

10-Day Weather Forecast

Advertisements
Track Severe Weather on mobile